Aérodrome :
LOGIN :

S'inscrire | Disclaimer

   EN    FR    IT 

 










Légende :    VFR   VFR Marginal   IFR   IFR Intensif   IFR Très Intensif
Visi : 
Plafond : 
>= 8 km
>= 3000ft
5 à 8 km
1000 à 3000 ft
1500m à 5 km
500 à 1000 ft
800 à 1500m
200 à 500 ft
< 800m
< 200 ft
Symboles :   Orages  Brouillard  Fortes neiges  Fortes précipitations  Vent > 20 kt
SIGMETs :   Divers  Orages  Givrage  Turbulence  Onde Orograph.  Cendres Volcan.






- Altitude de l'aérodrome : 1890 ft
- Code IATA : MEK


GMFM - Bassatine

DERNIER METAR :
  • 260329Z 27017KT 5000 -TSRA SCT010 BKN020 FEW030CB 09/08 Q1010 NOSIG M8

METARs EXPIRÉS :
  • 260300Z 27016KT 5000 -SHRA SCT010 BKN020 FEW030CB 09/07 Q1010 NOSIG
  • 260200Z 30006KT 6000 SCT010 BKN020 12/10 Q1009 NOSIG

TAF TAF GMFM
Valide du 26 à 00h jusqu'au 27 à 06h UTC


252300Z 2600/2706 VRB02KT 8000 SCT013 BKN020 FEW026CB
TEMPO 2602/2610 27010KT 4000 -TSRA
BECMG 2614/2618 32010KT 9999 SCT020 BKN100



MET'MAP, la Météo Aéronautique d'un coup d'oeil ! - Copyright ORBIFLY Décembre 2007 - Disclaimer

ORBIFLY MET'MAP TEAM :

Programmation & Développement : Alexandra Zaïnal
Sur une idée originale de : Baudouin d'Aumeries
Assistance à la programmation : Marc-Olivier Méhu
Soutien technique & logistique : Manuel Goepfert

Contact : metmap@orbifly.com




SOURCES & CREDITS :

   NOAA